Aérodrome :
LOGIN :

S'inscrire | Disclaimer

   EN    FR    IT 

 










Légende :    VFR   VFR Marginal   IFR   IFR Intensif   IFR Très Intensif
Visi : 
Plafond : 
>= 8 km
>= 3000ft
5 à 8 km
1000 à 3000 ft
1500m à 5 km
500 à 1000 ft
800 à 1500m
200 à 500 ft
< 800m
< 200 ft
Symboles :   Orages  Brouillard  Fortes neiges  Fortes précipitations  Vent > 20 kt
SIGMETs :   Divers  Orages  Givrage  Turbulence  Onde Orograph.  Cendres Volcan.







- Altitude de l'aérodrome : 18 ft
- Code IATA : AJA
- Voir les cartes d'approche


LFKJ - Ajaccio

DERNIER METAR :
  • 142130Z AUTO 04005KT 9000 NSC 13/11 Q1024 TEMPO 4000 MIFG BKN014

METARs EXPIRÉS :
  • 142100Z AUTO 05005KT 9000 NSC 13/12 Q1024 TEMPO 4000 MIFG BKN014
  • 142030Z AUTO 04004KT 8000 NSC 14/12 Q1024 TEMPO 4000 MIFG BKN014
  • 142000Z AUTO 04004KT 8000 SCT054 14/12 Q1024 TEMPO BKN014
  • 141930Z AUTO 05005KT 6000 NSC 14/13 Q1024 TEMPO BKN014
  • 141900Z AUTO 05004KT 6000 FEW052 14/13 Q1024 TEMPO BKN014

TAF TAF LFKJ
Valide du 14 à 21h jusqu'au 15 à 21h UTC


142000Z 1421/1521 05004KT 7000 FEW015
PROB30
TEMPO 1421/1521 4000 MIFG BKN014
ATIS : +33 4 95 23 59 85
Pas de NOTAMs connus pour ce terrain.



MET'MAP, la Météo Aéronautique d'un coup d'oeil ! - Copyright ORBIFLY Décembre 2007 - Disclaimer

ORBIFLY MET'MAP TEAM :

Programmation & Développement : Alexandra Zaïnal
Conception & Développement : Baudouin d'Aumeries
Co-Programmation & Développement : Marc-Olivier Méhu
Soutien technique & logistique : Manuel Goepfert

Contact : metmap@orbifly.com




SOURCES & CREDITS :

   NOAA